Time,TemperatureF,DewpointF,PressureIn,WindDirection,WindDirectionDegrees,WindSpeedMPH,WindSpeedGustMPH,Humidity,HourlyPrecipIn,Conditions,Clouds,dailyrainin,SoftwareType,DateUTC
2013-05-25 00:02:00,63.0,55.0,30.16,ENE,70,0.0,2.0,74,0.00,,,0.00,,2013-05-25 05:02:00,
2013-05-25 00:12:00,63.0,55.0,30.16,ENE,70,0.0,2.0,74,0.00,,,0.00,,2013-05-25 05:12:00,
2013-05-25 00:22:00,62.0,55.0,30.16,ENE,70,0.0,0.0,78,0.00,,,0.00,,2013-05-25 05:22:00,
2013-05-25 00:32:00,61.0,54.0,30.16,ENE,70,0.0,1.0,77,0.00,,,0.00,,2013-05-25 05:32:00,
2013-05-25 00:43:00,61.0,54.0,30.16,ENE,70,0.0,1.0,77,0.00,,,0.00,,2013-05-25 05:43:00,
2013-05-25 00:52:00,60.0,53.0,30.16,ENE,78,0.0,2.0,77,0.00,,,0.00,,2013-05-25 05:52:00,
2013-05-25 01:02:00,60.0,53.0,30.16,ENE,76,0.0,1.0,79,0.00,,,0.00,,2013-05-25 06:02:00,
2013-05-25 01:12:00,60.0,53.0,30.16,ENE,76,0.0,1.0,79,0.00,,,0.00,,2013-05-25 06:12:00,
2013-05-25 01:21:00,59.0,53.0,30.17,ENE,76,0.0,0.0,81,0.00,,,0.00,,2013-05-25 06:21:00,
2013-05-25 01:32:00,59.0,54.0,30.17,ENE,76,0.0,0.0,85,0.00,,,0.00,,2013-05-25 06:32:00,
2013-05-25 01:42:00,59.0,54.0,30.17,ENE,76,0.0,0.0,85,0.00,,,0.00,,2013-05-25 06:42:00,
2013-05-25 01:52:00,58.0,54.0,30.17,ENE,76,0.0,0.0,87,0.00,,,0.00,,2013-05-25 06:52:00,
2013-05-25 02:01:00,57.0,53.0,30.18,ENE,76,0.0,0.0,88,0.00,,,0.00,,2013-05-25 07:01:00,
2013-05-25 02:11:00,57.0,53.0,30.18,ENE,76,0.0,0.0,88,0.00,,,0.00,,2013-05-25 07:11:00,
2013-05-25 02:21:00,57.0,53.0,30.17,ENE,76,0.0,0.0,88,0.00,,,0.00,,2013-05-25 07:21:00,
2013-05-25 02:32:00,57.0,54.0,30.17,ENE,76,0.0,0.0,90,0.00,,,0.00,,2013-05-25 07:32:00,
2013-05-25 02:42:00,57.0,54.0,30.17,ENE,76,0.0,0.0,90,0.00,,,0.00,,2013-05-25 07:42:00,
2013-05-25 02:52:00,56.0,53.0,30.17,ENE,76,0.0,0.0,90,0.00,,,0.00,,2013-05-25 07:52:00,
2013-05-25 03:02:00,56.0,53.0,30.16,ENE,76,0.0,0.0,90,0.00,,,0.00,,2013-05-25 08:02:00,
2013-05-25 03:11:00,56.0,53.0,30.16,ENE,76,0.0,0.0,90,0.00,,,0.00,,2013-05-25 08:11:00,
2013-05-25 03:22:00,56.0,53.0,30.16,ENE,76,0.0,0.0,90,0.00,,,0.00,,2013-05-25 08:22:00,
2013-05-25 03:32:00,56.0,54.0,30.15,ENE,76,0.0,0.0,92,0.00,,,0.00,,2013-05-25 08:32:00,
2013-05-25 03:42:00,56.0,54.0,30.15,ENE,76,0.0,0.0,92,0.00,,,0.00,,2013-05-25 08:42:00,
2013-05-25 03:52:00,56.0,53.0,30.14,ENE,76,0.0,0.0,90,0.00,,,0.00,,2013-05-25 08:52:00,
2013-05-25 04:01:00,56.0,53.0,30.14,ENE,76,0.0,0.0,91,0.00,,,0.00,,2013-05-25 09:01:00,
2013-05-25 04:11:00,56.0,53.0,30.14,ENE,76,0.0,0.0,91,0.00,,,0.00,,2013-05-25 09:11:00,
2013-05-25 04:21:00,56.0,53.0,30.14,ENE,76,0.0,0.0,91,0.00,,,0.00,,2013-05-25 09:21:00,
2013-05-25 04:33:00,56.0,53.0,30.15,ENE,76,0.0,0.0,89,0.00,,,0.00,,2013-05-25 09:33:00,
2013-05-25 04:43:00,56.0,53.0,30.15,ENE,76,0.0,0.0,89,0.00,,,0.00,,2013-05-25 09:43:00,
2013-05-25 04:53:00,56.0,54.0,30.15,ENE,76,0.0,0.0,92,0.00,,,0.00,,2013-05-25 09:53:00,
2013-05-25 05:02:00,57.0,55.0,30.16,ENE,76,0.0,0.0,92,0.00,,,0.00,,2013-05-25 10:02:00,
2013-05-25 05:12:00,57.0,55.0,30.16,ENE,76,0.0,0.0,92,0.00,,,0.00,,2013-05-25 10:12:00,
2013-05-25 05:22:00,58.0,56.0,30.16,ENE,76,0.0,0.0,92,0.00,,,0.00,,2013-05-25 10:22:00,
2013-05-25 05:33:00,58.0,55.0,30.17,ENE,76,0.0,0.0,89,0.00,,,0.00,,2013-05-25 10:33:00,
2013-05-25 05:42:00,58.0,55.0,30.17,ENE,76,0.0,0.0,89,0.00,,,0.00,,2013-05-25 10:42:00,
2013-05-25 05:52:00,58.0,56.0,30.18,ENE,76,0.0,0.0,92,0.00,,,0.00,,2013-05-25 10:52:00,
2013-05-25 06:02:00,59.0,57.0,30.18,ENE,76,0.0,0.0,92,0.00,,,0.00,,2013-05-25 11:02:00,
2013-05-25 06:12:00,59.0,57.0,30.18,ENE,76,0.0,0.0,92,0.00,,,0.00,,2013-05-25 11:12:00,
2013-05-25 06:22:00,59.0,56.0,30.19,ENE,76,0.0,0.0,91,0.00,,,0.00,,2013-05-25 11:22:00,
2013-05-25 06:32:00,59.0,56.0,30.19,ENE,76,0.0,0.0,91,0.00,,,0.00,,2013-05-25 11:32:00,
2013-05-25 06:42:00,59.0,56.0,30.19,ENE,76,0.0,0.0,91,0.00,,,0.00,,2013-05-25 11:42:00,
2013-05-25 06:52:00,59.0,56.0,30.20,ENE,76,0.0,0.0,90,0.00,,,0.00,,2013-05-25 11:52:00,
2013-05-25 07:01:00,60.0,55.0,30.20,ENE,76,0.0,0.0,85,0.00,,,0.00,,2013-05-25 12:01:00,
2013-05-25 07:12:00,60.0,55.0,30.20,ENE,76,0.0,0.0,85,0.00,,,0.00,,2013-05-25 12:12:00,
2013-05-25 07:22:00,60.0,56.0,30.20,ENE,76,0.0,0.0,86,0.00,,,0.00,,2013-05-25 12:22:00,
2013-05-25 07:32:00,60.0,57.0,30.20,ENE,76,0.0,0.0,89,0.00,,,0.00,,2013-05-25 12:32:00,
2013-05-25 07:42:00,60.0,57.0,30.20,ENE,76,0.0,0.0,89,0.00,,,0.00,,2013-05-25 12:42:00,
2013-05-25 07:52:00,61.0,56.0,30.18,ENE,67,0.0,2.0,83,0.00,,,0.00,,2013-05-25 12:52:00,
2013-05-25 08:02:00,63.0,56.0,30.19,SSE,156,0.0,2.0,78,0.00,,,0.00,,2013-05-25 13:02:00,
2013-05-25 08:11:00,63.0,56.0,30.19,SSE,156,0.0,2.0,78,0.00,,,0.00,,2013-05-25 13:11:00,
2013-05-25 08:21:00,63.0,55.0,30.20,ENE,63,0.0,1.0,74,0.00,,,0.00,,2013-05-25 13:21:00,
2013-05-25 08:32:00,64.0,56.0,30.19,ENE,63,0.0,0.0,75,0.00,,,0.00,,2013-05-25 13:32:00,
2013-05-25 08:42:00,64.0,56.0,30.19,ENE,63,0.0,0.0,75,0.00,,,0.00,,2013-05-25 13:42:00,
2013-05-25 08:52:00,65.0,56.0,30.19,ENE,58,0.0,4.0,72,0.00,,,0.00,,2013-05-25 13:52:00,
2013-05-25 09:02:00,67.0,56.0,30.19,NW,326,0.0,6.0,68,0.00,,,0.00,,2013-05-25 14:02:00,
2013-05-25 09:11:00,67.0,56.0,30.19,NW,326,0.0,6.0,68,0.00,,,0.00,,2013-05-25 14:11:00,
2013-05-25 09:22:00,68.0,57.0,30.18,ENE,63,0.0,4.0,67,0.00,,,0.00,,2013-05-25 14:22:00,
2013-05-25 09:32:00,69.0,57.0,30.18,NNE,33,3.0,7.0,66,0.00,,,0.00,,2013-05-25 14:32:00,
2013-05-25 09:42:00,69.0,57.0,30.18,NNE,33,3.0,7.0,66,0.00,,,0.00,,2013-05-25 14:42:00,
2013-05-25 09:52:00,69.0,56.0,30.18,ENE,61,2.0,6.0,63,0.00,,,0.00,,2013-05-25 14:52:00,
2013-05-25 10:01:00,70.0,57.0,30.17,ENE,59,1.0,5.0,63,0.00,,,0.00,,2013-05-25 15:01:00,
2013-05-25 10:11:00,70.0,57.0,30.17,ENE,59,1.0,5.0,63,0.00,,,0.00,,2013-05-25 15:11:00,
2013-05-25 10:22:00,71.0,57.0,30.17,NE,41,1.0,6.0,62,0.00,,,0.00,,2013-05-25 15:22:00,
2013-05-25 10:33:00,72.0,57.0,30.16,NE,56,2.0,6.0,60,0.00,,,0.00,,2013-05-25 15:33:00,
2013-05-25 10:43:00,72.0,57.0,30.16,NE,56,2.0,6.0,60,0.00,,,0.00,,2013-05-25 15:43:00,
2013-05-25 10:53:00,73.0,60.0,30.16,ENE,59,0.0,4.0,64,0.00,,,0.00,,2013-05-25 15:53:00,
2013-05-25 11:03:00,74.0,60.0,30.16,ENE,63,0.0,6.0,61,0.00,,,0.00,,2013-05-25 16:03:00,
2013-05-25 11:12:00,74.0,60.0,30.16,ENE,63,0.0,6.0,61,0.00,,,0.00,,2013-05-25 16:12:00,
2013-05-25 11:23:00,74.0,60.0,30.16,SE,137,1.0,6.0,61,0.00,,,0.00,,2013-05-25 16:23:00,
2013-05-25 11:32:00,75.0,61.0,30.16,SW,228,0.0,5.0,62,0.00,,,0.00,,2013-05-25 16:32:00,
2013-05-25 11:42:00,75.0,61.0,30.16,SW,228,0.0,5.0,62,0.00,,,0.00,,2013-05-25 16:42:00,
2013-05-25 11:52:00,75.0,61.0,30.16,ENE,63,3.0,8.0,61,0.00,,,0.00,,2013-05-25 16:52:00,
2013-05-25 12:02:00,75.0,60.0,30.16,West,265,0.0,7.0,60,0.00,,,0.00,,2013-05-25 17:02:00,
2013-05-25 12:11:00,75.0,60.0,30.16,West,265,0.0,7.0,60,0.00,,,0.00,,2013-05-25 17:11:00,
2013-05-25 12:22:00,75.0,59.0,30.16,NE,50,4.0,8.0,58,0.00,,,0.00,,2013-05-25 17:22:00,
2013-05-25 12:32:00,76.0,62.0,30.16,West,279,0.0,6.0,63,0.00,,,0.00,,2013-05-25 17:32:00,
2013-05-25 12:42:00,76.0,62.0,30.16,West,279,0.0,6.0,63,0.00,,,0.00,,2013-05-25 17:42:00,
2013-05-25 12:52:00,76.0,63.0,30.16,West,279,1.0,7.0,64,0.00,,,0.00,,2013-05-25 17:52:00,
2013-05-25 13:01:00,76.0,63.0,30.16,North,350,0.0,6.0,64,0.00,,,0.00,,2013-05-25 18:01:00,
2013-05-25 13:11:00,76.0,63.0,30.16,North,350,0.0,6.0,64,0.00,,,0.00,,2013-05-25 18:11:00,
2013-05-25 13:21:00,76.0,62.0,30.16,NNE,15,1.0,9.0,62,0.00,,,0.00,,2013-05-25 18:21:00,
2013-05-25 13:32:00,76.0,63.0,30.15,NE,44,1.0,6.0,65,0.00,,,0.00,,2013-05-25 18:32:00,
2013-05-25 13:42:00,76.0,63.0,30.15,NE,44,1.0,6.0,65,0.00,,,0.00,,2013-05-25 18:42:00,
2013-05-25 13:52:00,77.0,63.0,30.14,ESE,103,2.0,6.0,62,0.00,,,0.00,,2013-05-25 18:52:00,
2013-05-25 14:01:00,78.0,64.0,30.14,NW,324,1.0,6.0,63,0.00,,,0.00,,2013-05-25 19:01:00,
2013-05-25 14:11:00,78.0,64.0,30.14,NW,324,1.0,6.0,63,0.00,,,0.00,,2013-05-25 19:11:00,
2013-05-25 14:22:00,79.0,64.0,30.14,SSE,159,1.0,6.0,61,0.00,,,0.00,,2013-05-25 19:22:00,
2013-05-25 14:32:00,79.0,64.0,30.13,ENE,58,1.0,5.0,61,0.00,,,0.00,,2013-05-25 19:32:00,
2013-05-25 14:42:00,79.0,64.0,30.13,ENE,58,1.0,5.0,61,0.00,,,0.00,,2013-05-25 19:42:00,
2013-05-25 14:52:00,80.0,66.0,30.12,NNE,22,1.0,7.0,63,0.00,,,0.00,,2013-05-25 19:52:00,
2013-05-25 15:02:00,79.0,66.0,30.12,NE,44,0.0,7.0,65,0.00,,,0.00,,2013-05-25 20:02:00,
2013-05-25 15:11:00,79.0,66.0,30.12,NE,44,0.0,7.0,65,0.00,,,0.00,,2013-05-25 20:11:00,
2013-05-25 15:22:00,80.0,66.0,30.11,ENE,60,1.0,9.0,62,0.00,,,0.00,,2013-05-25 20:22:00,
2013-05-25 15:32:00,80.0,64.0,30.11,West,259,0.0,4.0,59,0.00,,,0.00,,2013-05-25 20:32:00,
2013-05-25 15:42:00,80.0,64.0,30.11,West,259,0.0,4.0,59,0.00,,,0.00,,2013-05-25 20:42:00,
2013-05-25 15:52:00,80.0,66.0,30.11,East,101,1.0,7.0,62,0.00,,,0.00,,2013-05-25 20:52:00,
2013-05-25 16:02:00,80.0,66.0,30.11,ENE,61,1.0,5.0,62,0.00,,,0.00,,2013-05-25 21:02:00,
2013-05-25 16:11:00,80.0,66.0,30.11,ENE,61,1.0,5.0,62,0.00,,,0.00,,2013-05-25 21:11:00,
2013-05-25 16:21:00,81.0,66.0,30.10,North,5,0.0,4.0,60,0.00,,,0.00,,2013-05-25 21:21:00,
2013-05-25 16:33:00,80.0,66.0,30.10,ENE,59,2.0,6.0,63,0.00,,,0.00,,2013-05-25 21:33:00,
2013-05-25 16:43:00,80.0,66.0,30.10,ENE,59,2.0,6.0,63,0.00,,,0.00,,2013-05-25 21:43:00,
2013-05-25 16:53:00,80.0,66.0,30.10,WNW,292,1.0,5.0,63,0.00,,,0.00,,2013-05-25 21:53:00,
2013-05-25 17:03:00,80.0,65.0,30.09,WSW,254,0.0,5.0,61,0.00,,,0.00,,2013-05-25 22:03:00,
2013-05-25 17:12:00,80.0,65.0,30.09,WSW,254,0.0,5.0,61,0.00,,,0.00,,2013-05-25 22:12:00,
2013-05-25 17:22:00,79.0,65.0,30.09,SSW,213,0.0,4.0,62,0.00,,,0.00,,2013-05-25 22:22:00,
2013-05-25 17:32:00,79.0,66.0,30.09,East,80,0.0,4.0,64,0.00,,,0.00,,2013-05-25 22:32:00,
2013-05-25 17:42:00,79.0,66.0,30.09,East,80,0.0,4.0,64,0.00,,,0.00,,2013-05-25 22:42:00,
2013-05-25 17:52:00,79.0,65.0,30.08,NE,51,1.0,6.0,63,0.00,,,0.00,,2013-05-25 22:52:00,
2013-05-25 18:02:00,79.0,66.0,30.08,NE,54,1.0,6.0,64,0.00,,,0.00,,2013-05-25 23:02:00,
2013-05-25 18:12:00,79.0,66.0,30.08,NE,54,1.0,6.0,64,0.00,,,0.00,,2013-05-25 23:12:00,
2013-05-25 18:22:00,79.0,66.0,30.06,ENE,66,0.0,4.0,65,0.00,,,0.00,,2013-05-25 23:22:00,
2013-05-25 18:32:00,79.0,66.0,30.06,NW,308,0.0,6.0,64,0.00,,,0.00,,2013-05-25 23:32:00,
2013-05-25 18:42:00,79.0,66.0,30.06,NW,308,0.0,6.0,64,0.00,,,0.00,,2013-05-25 23:42:00,
2013-05-25 18:52:00,78.0,65.0,30.05,NE,56,0.0,4.0,65,0.00,,,0.00,,2013-05-25 23:52:00,
2013-05-25 19:01:00,77.0,65.0,30.05,NNW,348,0.0,4.0,67,0.00,,,0.00,,2013-05-26 00:01:00,
2013-05-25 19:11:00,77.0,65.0,30.05,NNW,348,0.0,4.0,67,0.00,,,0.00,,2013-05-26 00:11:00,
2013-05-25 19:22:00,77.0,66.0,30.04,NE,53,0.0,1.0,68,0.00,,,0.00,,2013-05-26 00:22:00,
2013-05-25 19:31:00,76.0,65.0,30.04,SE,141,0.0,2.0,69,0.00,,,0.00,,2013-05-26 00:31:00,
2013-05-25 19:42:00,76.0,65.0,30.04,SE,141,0.0,2.0,69,0.00,,,0.00,,2013-05-26 00:42:00,
2013-05-25 19:52:00,76.0,65.0,30.04,SE,141,0.0,2.0,69,0.00,,,0.00,,2013-05-26 00:52:00,
2013-05-25 20:01:00,74.0,66.0,30.04,ENE,76,0.0,2.0,75,0.00,,,0.00,,2013-05-26 01:01:00,
2013-05-25 20:11:00,74.0,66.0,30.04,ENE,76,0.0,2.0,75,0.00,,,0.00,,2013-05-26 01:11:00,
2013-05-25 20:21:00,73.0,65.0,30.03,ENE,74,0.0,1.0,77,0.00,,,0.00,,2013-05-26 01:21:00,
2013-05-25 20:32:00,72.0,65.0,30.03,ENE,67,0.0,2.0,78,0.00,,,0.00,,2013-05-26 01:32:00,
2013-05-25 20:42:00,72.0,65.0,30.03,ENE,67,0.0,2.0,78,0.00,,,0.00,,2013-05-26 01:42:00,
2013-05-25 20:52:00,71.0,65.0,30.03,ENE,67,0.0,0.0,81,0.00,,,0.00,,2013-05-26 01:52:00,
2013-05-25 21:02:00,70.0,65.0,30.03,ENE,67,0.0,0.0,84,0.00,,,0.00,,2013-05-26 02:02:00,
2013-05-25 21:11:00,70.0,65.0,30.03,ENE,67,0.0,0.0,84,0.00,,,0.00,,2013-05-26 02:11:00,
2013-05-25 21:21:00,69.0,65.0,30.02,ENE,67,0.0,0.0,86,0.00,,,0.00,,2013-05-26 02:21:00,
2013-05-25 21:32:00,68.0,65.0,30.02,ENE,67,0.0,1.0,89,0.00,,,0.00,,2013-05-26 02:32:00,
2013-05-25 21:42:00,68.0,65.0,30.02,ENE,67,0.0,1.0,89,0.00,,,0.00,,2013-05-26 02:42:00,
2013-05-25 21:52:00,67.0,64.0,30.03,ENE,67,0.0,0.0,90,0.00,,,0.00,,2013-05-26 02:52:00,
2013-05-25 22:01:00,67.0,64.0,30.03,ENE,67,0.0,0.0,90,0.00,,,0.00,,2013-05-26 03:01:00,
2013-05-25 22:11:00,67.0,64.0,30.03,ENE,67,0.0,0.0,90,0.00,,,0.00,,2013-05-26 03:11:00,
2013-05-25 22:21:00,65.0,63.0,30.04,ENE,67,0.0,0.0,92,0.00,,,0.00,,2013-05-26 03:21:00,
2013-05-25 22:33:00,65.0,63.0,30.04,ENE,67,0.0,0.0,92,0.00,,,0.00,,2013-05-26 03:33:00,
2013-05-25 22:43:00,65.0,63.0,30.04,ENE,67,0.0,0.0,92,0.00,,,0.00,,2013-05-26 03:43:00,
2013-05-25 22:53:00,65.0,63.0,30.05,ENE,67,0.0,0.0,93,0.00,,,0.00,,2013-05-26 03:53:00,
2013-05-25 23:02:00,65.0,63.0,30.05,ENE,67,0.0,0.0,93,0.00,,,0.00,,2013-05-26 04:02:00,
2013-05-25 23:12:00,65.0,63.0,30.05,ENE,67,0.0,0.0,93,0.00,,,0.00,,2013-05-26 04:12:00,
2013-05-25 23:23:00,65.0,63.0,30.05,ENE,67,0.0,0.0,93,0.00,,,0.00,,2013-05-26 04:23:00,
2013-05-25 23:33:00,65.0,63.0,30.06,ENE,67,0.0,0.0,94,0.00,,,0.00,,2013-05-26 04:33:00,
2013-05-25 23:42:00,65.0,63.0,30.06,ENE,67,0.0,0.0,94,0.00,,,0.00,,2013-05-26 04:42:00,
2013-05-25 23:52:00,65.0,63.0,30.06,ENE,67,0.0,0.0,93,0.00,,,0.00,,2013-05-26 04:52:00,